Time;durP1;ratioP1;P1;durP2;ratioP2;P2;SDS_P1;SDS_P2;PMS_P1;PMS_P2;Temp;Humidity;BMP_temperature;BMP_pressure;BME280_temperature;BME280_humidity;BME280_pressure;Samples;Min_cycle;Max_cycle;Signal;HPM_P1;HPM_P2
2021/01/17 00:00:26;;;;;;;19.33;10.43;;;-1.10;90.90;;;;;;6272904;22;20004;-79
2021/01/17 00:02:52;;;;;;;14.95;9.50;;;-1.20;91.70;;;;;;6274317;22;20083;-80
2021/01/17 00:05:24;;;;;;;13.68;9.13;;;-1.00;90.60;;;;;;6247229;22;20000;-81
2021/01/17 00:07:51;;;;;;;16.50;10.00;;;-1.00;89.50;;;;;;6248477;22;20027;-79
2021/01/17 00:10:23;;;;;;;16.35;8.73;;;-1.00;89.30;;;;;;6249101;22;20007;-79
2021/01/17 00:12:50;;;;;;;15.85;9.93;;;-1.00;88.70;;;;;;6276395;22;20007;-81
2021/01/17 00:15:16;;;;;;;11.93;9.52;;;-1.00;89.20;;;;;;6276033;22;20010;-82
2021/01/17 00:17:44;;;;;;;17.92;11.40;;;-0.90;86.70;;;;;;6279780;22;19999;-88
2021/01/17 00:20:12;;;;;;;24.77;13.70;;;-0.80;97.70;;;;;;6253128;22;20352;-85
2021/01/17 00:22:38;;;;;;;17.95;11.68;;;-0.50;93.80;;;;;;6250964;22;20007;-84
2021/01/17 00:25:09;;;;;;;13.52;8.82;;;-0.80;89.80;;;;;;6250418;22;20066;-80
2021/01/17 00:27:35;;;;;;;14.38;8.93;;;-0.80;83.20;;;;;;6248460;22;20015;-81
2021/01/17 00:30:03;;;;;;;13.20;9.32;;;-0.80;83.50;;;;;;6248168;22;20008;-80
2021/01/17 00:32:28;;;;;;;15.95;9.70;;;-0.80;84.90;;;;;;6277124;22;20014;-83
2021/01/17 00:34:54;;;;;;;15.13;9.23;;;-0.70;84.70;;;;;;6276703;22;20067;-82
2021/01/17 00:37:20;;;;;;;12.88;9.88;;;-0.80;82.10;;;;;;6250313;22;20008;-81
2021/01/17 00:39:46;;;;;;;13.77;8.88;;;-0.70;82.20;;;;;;6277291;22;20046;-81
2021/01/17 00:42:16;;;;;;;14.98;10.23;;;-0.60;81.30;;;;;;6276735;22;20299;-85
2021/01/17 00:44:42;;;;;;;12.52;8.82;;;-0.50;81.10;;;;;;6250511;22;20027;-85
2021/01/17 00:47:13;;;;;;;15.60;10.05;;;-0.40;80.10;;;;;;6278973;22;20004;-86
2021/01/17 00:49:43;;;;;;;14.27;9.30;;;-0.40;79.30;;;;;;6279453;22;19995;-84
2021/01/17 00:52:18;;;;;;;13.38;9.40;;;-0.50;79.80;;;;;;6281240;22;20010;-85
2021/01/17 00:54:44;;;;;;;13.40;9.45;;;-0.40;79.10;;;;;;6251385;22;20004;-83
2021/01/17 00:57:10;;;;;;;14.20;9.63;;;-0.60;80.30;;;;;;6278805;22;20008;-83
2021/01/17 00:59:36;;;;;;;13.05;9.77;;;-0.60;80.70;;;;;;6251452;22;20039;-84
2021/01/17 01:02:03;;;;;;;17.63;10.40;;;-0.40;81.40;;;;;;6278010;22;20083;-80
2021/01/17 01:04:28;;;;;;;14.63;9.95;;;-0.50;80.10;;;;;;6278530;22;20015;-80
2021/01/17 01:06:54;;;;;;;13.73;10.02;;;-0.50;81.10;;;;;;6277986;22;20007;-84
2021/01/17 01:09:20;;;;;;;13.52;9.57;;;-0.50;81.10;;;;;;6277614;22;20059;-81
2021/01/17 01:11:47;;;;;;;13.85;8.80;;;-0.50;81.50;;;;;;6276360;22;20007;-81
2021/01/17 01:14:13;;;;;;;15.52;10.07;;;-0.40;82.30;;;;;;6249813;22;20004;-82
2021/01/17 01:16:39;;;;;;;17.20;9.98;;;-0.40;82.70;;;;;;6248406;22;20103;-82
2021/01/17 01:19:25;;;;;;;16.67;10.10;;;-0.40;82.10;;;;;;6275318;22;20015;-80
2021/01/17 01:21:51;;;;;;;14.73;9.95;;;-0.20;82.00;;;;;;6249190;22;20011;-82
2021/01/17 01:24:16;;;;;;;17.88;10.55;;;-0.20;81.50;;;;;;6274896;22;20115;-81
2021/01/17 01:26:44;;;;;;;16.85;10.25;;;-0.20;82.50;;;;;;6273689;22;20054;-81
2021/01/17 01:29:11;;;;;;;16.17;10.23;;;-0.30;83.70;;;;;;6275485;22;20034;-82
2021/01/17 01:31:38;;;;;;;14.25;10.13;;;-0.30;84.60;;;;;;6247942;22;20053;-81
2021/01/17 01:34:05;;;;;;;13.45;10.57;;;-0.30;85.10;;;;;;6275072;22;19996;-82
2021/01/17 01:36:36;;;;;;;18.13;10.40;;;-0.30;85.30;;;;;;6275407;22;20078;-82
2021/01/17 01:39:05;;;;;;;16.42;10.82;;;-0.30;85.80;;;;;;6275701;22;19996;-81
2021/01/17 01:41:33;;;;;;;18.67;10.98;;;-0.20;86.30;;;;;;6275516;22;20010;-82
2021/01/17 01:44:02;;;;;;;16.73;11.27;;;-0.10;85.70;;;;;;6275707;22;20007;-81
2021/01/17 01:46:30;;;;;;;17.67;11.82;;;-0.10;85.90;;;;;;6275061;22;19999;-81
2021/01/17 01:48:59;;;;;;;17.83;11.18;;;-0.30;86.20;;;;;;6275294;22;20058;-81
2021/01/17 01:51:25;;;;;;;20.23;12.15;;;-0.20;86.80;;;;;;6247532;22;19999;-83
2021/01/17 01:53:53;;;;;;;18.27;11.77;;;-0.10;86.10;;;;;;6247692;22;20417;-80
2021/01/17 01:56:19;;;;;;;23.52;12.55;;;-0.20;84.90;;;;;;6274578;22;20322;-81
2021/01/17 01:58:46;;;;;;;20.83;12.70;;;-0.20;85.50;;;;;;6275842;22;20012;-80
2021/01/17 02:01:12;;;;;;;17.90;11.93;;;-0.10;85.90;;;;;;6275412;22;20000;-81
2021/01/17 02:03:38;;;;;;;18.33;10.77;;;-0.10;85.70;;;;;;6248445;22;20090;-81
2021/01/17 02:06:11;;;;;;;15.98;10.55;;;-0.10;83.60;;;;;;6247546;22;20042;-83
2021/01/17 02:09:04;;;;;;;18.88;11.77;;;-0.20;83.20;;;;;;6248113;22;20010;-81
2021/01/17 02:11:44;;;;;;;24.70;12.07;;;-0.20;83.40;;;;;;6275204;22;20000;-81
2021/01/17 02:14:28;;;;;;;26.00;12.15;;;-0.40;84.80;;;;;;6276529;22;20018;-80
2021/01/17 02:16:55;;;;;;;17.73;11.40;;;-0.40;85.60;;;;;;6275475;22;20086;-80
2021/01/17 02:19:28;;;;;;;17.73;10.90;;;-0.50;85.90;;;;;;6275374;22;20015;-83
2021/01/17 02:22:01;;;;;;;17.83;11.25;;;-0.50;86.30;;;;;;6275227;22;20481;-82
2021/01/17 02:24:33;;;;;;;15.80;10.57;;;-0.50;85.00;;;;;;6247848;22;20073;-80
2021/01/17 02:27:00;;;;;;;17.85;10.95;;;-0.50;84.40;;;;;;6246583;22;20370;-79
2021/01/17 02:29:28;;;;;;;18.40;11.93;;;-0.60;86.00;;;;;;6275911;22;20065;-81
2021/01/17 02:32:00;;;;;;;20.13;12.38;;;-0.40;85.60;;;;;;6275348;22;20042;-81
2021/01/17 02:34:28;;;;;;;23.33;12.73;;;-0.30;88.20;;;;;;6248559;22;20007;-81
2021/01/17 02:37:31;;;;;;;19.75;12.98;;;-0.40;89.40;;;;;;6274308;22;20007;-79
2021/01/17 02:40:16;;;;;;;22.67;13.13;;;-0.30;88.20;;;;;;6274989;22;20379;-81
2021/01/17 02:42:45;;;;;;;21.63;12.23;;;-0.40;87.30;;;;;;6274749;22;20322;-82
2021/01/17 02:45:11;;;;;;;18.77;11.75;;;-0.30;88.30;;;;;;6275285;22;20426;-80
2021/01/17 02:47:36;;;;;;;21.75;13.57;;;-0.20;88.60;;;;;;6275161;22;20010;-81
2021/01/17 02:50:02;;;;;;;23.88;13.65;;;-0.60;91.50;;;;;;6275327;22;20492;-82
2021/01/17 02:52:55;;;;;;;21.38;13.90;;;-0.40;92.20;;;;;;6275521;22;20008;-80
2021/01/17 02:55:23;;;;;;;24.05;13.98;;;-0.40;92.40;;;;;;6275965;22;20127;-80
2021/01/17 02:57:55;;;;;;;25.70;14.05;;;-0.40;92.70;;;;;;6275731;22;20042;-80
2021/01/17 03:00:25;;;;;;;24.35;14.57;;;-0.40;92.80;;;;;;6249391;22;20000;-82
2021/01/17 03:02:54;;;;;;;22.13;14.48;;;-0.40;93.00;;;;;;6250862;22;20081;-81
2021/01/17 03:05:23;;;;;;;20.98;13.73;;;-0.50;93.00;;;;;;6249442;22;20000;-80
2021/01/17 03:07:51;;;;;;;25.17;13.68;;;-0.50;92.90;;;;;;6249845;22;19999;-81
2021/01/17 03:10:18;;;;;;;21.83;13.52;;;-0.40;92.40;;;;;;6277144;22;20011;-81
2021/01/17 03:12:45;;;;;;;23.10;13.15;;;-0.40;92.10;;;;;;6277553;22;20397;-81
2021/01/17 03:15:12;;;;;;;25.20;14.38;;;-0.40;91.60;;;;;;6278168;22;20011;-82
2021/01/17 03:17:38;;;;;;;18.63;11.85;;;-0.40;91.10;;;;;;6277285;22;19996;-78
2021/01/17 03:20:06;;;;;;;23.80;12.23;;;-0.40;90.60;;;;;;6277222;22;20016;-80
2021/01/17 03:22:33;;;;;;;21.40;13.18;;;-0.50;90.50;;;;;;6249937;22;20122;-78
2021/01/17 03:24:59;;;;;;;22.23;12.82;;;-0.40;90.50;;;;;;6249733;22;20027;-82
2021/01/17 03:27:24;;;;;;;17.98;12.65;;;-0.40;90.20;;;;;;6250063;22;20000;-82
2021/01/17 03:29:50;;;;;;;21.35;12.07;;;-0.50;90.20;;;;;;6278728;22;20429;-82
2021/01/17 03:32:16;;;;;;;23.13;13.63;;;-0.70;91.00;;;;;;6250875;22;20007;-80
2021/01/17 03:34:48;;;;;;;18.70;12.48;;;-0.50;91.00;;;;;;6278206;22;20007;-83
2021/01/17 03:37:17;;;;;;;22.15;13.02;;;-0.40;91.00;;;;;;6250389;22;20061;-82
2021/01/17 03:39:43;;;;;;;21.88;12.50;;;-0.40;90.70;;;;;;6277432;22;20079;-82
2021/01/17 03:42:10;;;;;;;21.95;12.98;;;-0.50;90.30;;;;;;6250111;22;20370;-82
2021/01/17 03:44:36;;;;;;;20.13;12.07;;;-0.50;89.70;;;;;;6276982;22;20011;-80
2021/01/17 03:47:03;;;;;;;19.83;11.57;;;-0.60;88.70;;;;;;6250618;22;20042;-82
2021/01/17 03:49:29;;;;;;;26.13;13.55;;;-0.70;86.80;;;;;;6278002;22;20299;-80
2021/01/17 03:51:55;;;;;;;22.90;13.20;;;-0.70;89.10;;;;;;6250624;22;20565;-78
2021/01/17 03:54:21;;;;;;;23.75;13.18;;;-0.80;91.70;;;;;;6276856;22;20004;-78
2021/01/17 03:56:47;;;;;;;24.13;14.07;;;-0.80;92.50;;;;;;6275908;22;20015;-80
2021/01/17 03:59:16;;;;;;;24.50;15.30;;;-0.80;93.40;;;;;;6277561;22;20007;-79
2021/01/17 04:01:42;;;;;;;21.05;13.52;;;-0.90;94.50;;;;;;6277158;22;20303;-81
2021/01/17 04:04:09;;;;;;;22.92;12.60;;;-0.90;95.00;;;;;;6249943;22;20027;-79
2021/01/17 04:06:36;;;;;;;20.15;12.70;;;-0.90;94.00;;;;;;6276116;22;20062;-80
2021/01/17 04:09:05;;;;;;;21.65;12.45;;;-1.00;93.40;;;;;;6276645;22;20011;-78
2021/01/17 04:11:31;;;;;;;21.48;11.75;;;-0.90;92.60;;;;;;6249048;22;20329;-80
2021/01/17 04:13:57;;;;;;;15.05;9.77;;;-0.90;91.80;;;;;;6278495;22;20016;-79
2021/01/17 04:16:23;;;;;;;17.45;10.77;;;-0.90;90.20;;;;;;6276988;22;20004;-80
2021/01/17 04:18:48;;;;;;;16.10;10.05;;;-0.80;90.20;;;;;;6249184;22;20026;-80
2021/01/17 04:21:14;;;;;;;18.48;11.15;;;-0.80;88.80;;;;;;6249205;22;20031;-81
2021/01/17 04:23:41;;;;;;;15.68;10.15;;;-0.80;88.70;;;;;;6276323;22;20413;-81
2021/01/17 04:26:07;;;;;;;18.30;10.88;;;-0.90;89.30;;;;;;6276341;22;20007;-79
2021/01/17 04:28:33;;;;;;;16.65;10.93;;;-0.90;90.40;;;;;;6250038;22;20019;-80
2021/01/17 04:30:59;;;;;;;13.80;10.00;;;-0.90;90.80;;;;;;6276917;22;20069;-79
2021/01/17 04:33:24;;;;;;;17.63;9.68;;;-0.90;90.80;;;;;;6277225;22;20459;-79
2021/01/17 04:35:50;;;;;;;15.05;10.48;;;-0.90;89.80;;;;;;6249427;22;20813;-79
2021/01/17 04:38:16;;;;;;;15.68;10.10;;;-0.90;90.30;;;;;;6248584;22;20031;-80
2021/01/17 04:40:43;;;;;;;15.45;9.60;;;-1.00;90.30;;;;;;6275679;22;19996;-79
2021/01/17 04:43:34;;;;;;;15.07;9.95;;;-1.00;89.40;;;;;;6248314;22;20008;-79
2021/01/17 04:46:02;;;;;;;13.57;9.48;;;-1.00;87.90;;;;;;6276341;22;20011;-78
2021/01/17 04:48:29;;;;;;;16.40;9.63;;;-1.00;86.20;;;;;;6276388;22;20007;-78
2021/01/17 04:51:02;;;;;;;16.05;10.07;;;-1.10;87.40;;;;;;6276715;22;20147;-80
2021/01/17 04:53:31;;;;;;;15.57;9.90;;;-1.20;88.60;;;;;;6277181;22;19996;-78
2021/01/17 04:56:19;;;;;;;15.55;10.15;;;-1.30;89.80;;;;;;6276606;22;20333;-82
2021/01/17 04:58:50;;;;;;;17.98;10.70;;;-1.60;91.10;;;;;;6250155;22;20097;-79
2021/01/17 05:01:43;;;;;;;20.33;10.82;;;-1.50;91.90;;;;;;6276835;22;20373;-80
2021/01/17 05:04:24;;;;;;;15.15;10.60;;;-1.30;91.70;;;;;;6276163;22;20009;-80
2021/01/17 05:06:59;;;;;;;15.45;10.65;;;-1.30;91.60;;;;;;6275923;22;20054;-83
2021/01/17 05:09:31;;;;;;;19.10;10.50;;;-1.20;91.40;;;;;;6276086;22;20010;-83
2021/01/17 05:12:14;;;;;;;14.95;9.98;;;-1.30;91.00;;;;;;6276175;22;20014;-80
2021/01/17 05:14:48;;;;;;;16.80;11.13;;;-1.10;91.50;;;;;;6278200;22;20371;-80
2021/01/17 05:17:21;;;;;;;18.95;10.45;;;-1.30;91.70;;;;;;6276846;22;20004;-79
2021/01/17 05:19:47;;;;;;;13.00;9.30;;;-1.50;92.10;;;;;;6277063;22;20018;-78
2021/01/17 05:22:14;;;;;;;20.00;10.50;;;-1.30;92.70;;;;;;6248184;22;20381;-79
2021/01/17 05:24:43;;;;;;;19.08;11.27;;;-1.30;92.30;;;;;;6275391;22;19999;-78
2021/01/17 05:27:08;;;;;;;17.35;10.25;;;-1.30;93.40;;;;;;6248968;22;20003;-79
2021/01/17 05:29:34;;;;;;;18.05;11.05;;;-1.20;93.30;;;;;;6249100;22;20015;-78
2021/01/17 05:32:02;;;;;;;17.85;11.25;;;-1.20;93.10;;;;;;6248874;22;20333;-81
2021/01/17 05:34:29;;;;;;;18.52;10.95;;;-1.20;93.30;;;;;;6275500;22;19992;-79
2021/01/17 05:37:03;;;;;;;19.27;11.20;;;-1.60;93.70;;;;;;6275385;22;20011;-79
2021/01/17 05:39:29;;;;;;;14.43;9.68;;;-1.60;94.70;;;;;;6275501;22;20056;-79
2021/01/17 05:42:08;;;;;;;16.50;10.35;;;-1.50;94.50;;;;;;6249179;22;20007;-81
2021/01/17 05:44:34;;;;;;;18.40;11.77;;;-1.50;94.30;;;;;;6276853;22;20011;-81
2021/01/17 05:47:04;;;;;;;17.40;10.38;;;-1.50;94.60;;;;;;6249405;22;20006;-81
2021/01/17 05:49:30;;;;;;;16.10;12.30;;;-1.60;94.60;;;;;;6276819;22;20389;-79
2021/01/17 05:52:10;;;;;;;21.00;11.82;;;-1.60;94.70;;;;;;6275263;22;20421;-81
2021/01/17 05:54:37;;;;;;;16.98;11.05;;;-1.50;94.80;;;;;;6275277;22;20003;-78
2021/01/17 05:57:12;;;;;;;16.13;10.75;;;-1.50;94.50;;;;;;6274844;22;20053;-79
2021/01/17 05:59:38;;;;;;;16.15;10.75;;;-1.70;94.60;;;;;;6276220;22;20003;-79
2021/01/17 06:02:11;;;;;;;19.02;10.60;;;-1.90;95.40;;;;;;6275216;22;20046;-79
2021/01/17 06:04:40;;;;;;;16.70;10.32;;;-1.80;95.10;;;;;;6275929;22;20083;-78
2021/01/17 06:07:07;;;;;;;15.85;10.43;;;-1.70;94.30;;;;;;6276069;22;20000;-79
2021/01/17 06:09:37;;;;;;;15.02;10.32;;;-1.60;94.20;;;;;;6275987;22;19996;-80
2021/01/17 06:12:04;;;;;;;19.90;11.40;;;-1.60;94.40;;;;;;6275913;22;20053;-80
2021/01/17 06:14:30;;;;;;;16.15;10.30;;;-1.60;94.30;;;;;;6276720;22;20030;-79
2021/01/17 06:17:01;;;;;;;14.40;9.95;;;-1.50;93.90;;;;;;6275650;22;20004;-81
2021/01/17 06:19:38;;;;;;;16.25;9.45;;;-1.60;93.80;;;;;;6276325;22;20016;-81
2021/01/17 06:22:09;;;;;;;22.23;10.52;;;-1.60;93.70;;;;;;6275196;22;20027;-79
2021/01/17 06:24:37;;;;;;;15.13;10.07;;;-1.60;93.20;;;;;;6274803;22;19996;-82
2021/01/17 06:27:05;;;;;;;14.05;9.93;;;-1.60;93.20;;;;;;6275342;22;20421;-79
2021/01/17 06:29:42;;;;;;;17.35;11.15;;;-1.60;93.20;;;;;;6276037;22;20011;-79
2021/01/17 06:32:19;;;;;;;16.55;9.80;;;-1.50;92.80;;;;;;6275698;22;20004;-79
2021/01/17 06:34:49;;;;;;;16.08;10.25;;;-1.50;93.00;;;;;;6274856;22;20071;-79
2021/01/17 06:37:16;;;;;;;13.88;9.57;;;-1.60;93.50;;;;;;6276808;22;20008;-81
2021/01/17 06:39:44;;;;;;;16.63;10.57;;;-1.50;93.50;;;;;;6250340;22;20051;-80
2021/01/17 06:42:13;;;;;;;17.63;10.90;;;-1.40;93.10;;;;;;6277699;22;20070;-82
2021/01/17 06:44:39;;;;;;;18.13;11.18;;;-1.30;92.60;;;;;;6251312;22;20073;-81
2021/01/17 06:47:16;;;;;;;16.65;10.77;;;-1.40;92.70;;;;;;6278640;22;20045;-80
2021/01/17 06:49:43;;;;;;;15.20;11.02;;;-1.30;92.50;;;;;;6278620;22;20337;-80
2021/01/17 06:52:10;;;;;;;14.85;10.73;;;-1.20;92.30;;;;;;6277077;22;20079;-82
2021/01/17 06:54:41;;;;;;;20.33;10.50;;;-1.10;92.20;;;;;;6276914;22;20646;-79
2021/01/17 06:57:08;;;;;;;20.02;10.90;;;-1.00;92.00;;;;;;6277042;22;20007;-81
2021/01/17 06:59:33;;;;;;;18.95;11.80;;;-0.90;91.90;;;;;;6277242;22;20023;-79
2021/01/17 07:02:25;;;;;;;15.55;11.20;;;-0.80;91.80;;;;;;6277471;22;19995;-79
2021/01/17 07:04:59;;;;;;;16.83;11.00;;;-0.80;92.10;;;;;;6259858;22;20003;-80
2021/01/17 07:07:31;;;;;;;20.27;11.75;;;-0.90;91.80;;;;;;6277133;22;20000;-81
2021/01/17 07:10:01;;;;;;;15.55;11.50;;;-0.90;93.40;;;;;;6277635;22;20083;-80
2021/01/17 07:12:53;;;;;;;17.00;10.80;;;-0.70;92.20;;;;;;6249953;22;20378;-80
2021/01/17 07:15:32;;;;;;;20.17;11.32;;;-0.60;91.30;;;;;;6277352;22;20023;-81
2021/01/17 07:18:18;;;;;;;15.23;9.68;;;-0.30;90.50;;;;;;6249315;22;20054;-79
2021/01/17 07:20:48;;;;;;;21.65;10.85;;;-0.30;87.80;;;;;;6276026;22;20061;-80
2021/01/17 07:23:16;;;;;;;18.90;10.30;;;-0.30;85.30;;;;;;6276529;22;20000;-81
2021/01/17 07:25:44;;;;;;;14.93;10.15;;;-0.40;85.30;;;;;;6276070;22;20075;-81
2021/01/17 07:28:18;;;;;;;13.15;9.65;;;-0.30;84.90;;;;;;6277587;22;20367;-82
2021/01/17 07:30:48;;;;;;;19.65;9.65;;;0.00;83.80;;;;;;6276571;22;20004;-79
2021/01/17 07:33:16;;;;;;;15.63;10.20;;;0.20;83.00;;;;;;6277550;22;20004;-80
2021/01/17 07:35:44;;;;;;;16.33;10.35;;;0.70;81.70;;;;;;6276589;22;20007;-79
2021/01/17 07:38:23;;;;;;;12.30;9.32;;;1.00;80.60;;;;;;6276251;22;20004;-81
2021/01/17 07:40:53;;;;;;;15.35;10.90;;;1.20;78.10;;;;;;6276015;22;20003;-79
2021/01/17 07:43:45;;;;;;;14.43;10.02;;;1.30;76.80;;;;;;6276350;22;20317;-82
2021/01/17 07:46:18;;;;;;;20.83;11.23;;;1.60;74.50;;;;;;6244118;22;20011;-79
2021/01/17 07:48:49;;;;;;;15.68;10.48;;;1.50;72.50;;;;;;6277808;22;20421;-79
2021/01/17 07:51:16;;;;;;;19.75;12.68;;;1.60;73.30;;;;;;6277451;22;20436;-79
2021/01/17 07:53:46;;;;;;;20.33;13.00;;;1.60;74.10;;;;;;6277661;22;19999;-79
2021/01/17 07:56:28;;;;;;;18.27;10.80;;;1.90;74.00;;;;;;6276585;22;20016;-79
2021/01/17 07:59:02;;;;;;;16.05;11.10;;;2.00;73.10;;;;;;6250286;22;20422;-79
2021/01/17 08:01:31;;;;;;;18.42;10.10;;;2.00;73.20;;;;;;6276505;22;20008;-79
2021/01/17 08:04:11;;;;;;;17.85;11.32;;;2.20;72.70;;;;;;6276496;22;20325;-80
2021/01/17 08:06:36;;;;;;;21.40;12.48;;;2.00;72.00;;;;;;6276054;22;20014;-80
2021/01/17 08:09:08;;;;;;;24.40;12.55;;;2.10;71.30;;;;;;6276337;22;20353;-81
2021/01/17 08:11:49;;;;;;;18.02;11.57;;;2.20;71.40;;;;;;6276793;22;20038;-80
2021/01/17 08:14:29;;;;;;;21.48;12.63;;;2.50;70.20;;;;;;6278119;22;20057;-81
2021/01/17 08:17:06;;;;;;;22.17;11.77;;;2.70;67.80;;;;;;6249083;22;20103;-80
2021/01/17 08:19:45;;;;;;;17.42;11.18;;;2.90;67.60;;;;;;6278055;22;20007;-80
2021/01/17 08:22:17;;;;;;;15.18;11.05;;;3.10;66.60;;;;;;6249271;22;20119;-80
2021/01/17 08:25:03;;;;;;;18.40;11.55;;;2.90;64.40;;;;;;6276420;22;19996;-79
2021/01/17 08:27:33;;;;;;;15.88;11.25;;;3.00;65.90;;;;;;6249375;22;20007;-81
2021/01/17 08:30:07;;;;;;;16.15;10.52;;;3.30;65.10;;;;;;6249071;22;20401;-78
2021/01/17 08:32:45;;;;;;;19.02;11.15;;;3.80;64.00;;;;;;6276045;22;20008;-82
2021/01/17 08:35:23;;;;;;;18.10;12.10;;;3.80;63.10;;;;;;6276839;22;20012;-80
2021/01/17 08:38:10;;;;;;;17.83;11.50;;;3.80;63.00;;;;;;6276999;22;19999;-81
2021/01/17 08:40:35;;;;;;;18.30;12.13;;;3.90;61.80;;;;;;6249564;22;20015;-80
2021/01/17 08:43:07;;;;;;;18.48;11.75;;;3.90;60.80;;;;;;6276705;22;20011;-81
2021/01/17 08:45:36;;;;;;;17.92;12.00;;;3.80;61.10;;;;;;6250202;22;20086;-80
2021/01/17 08:48:17;;;;;;;19.00;12.45;;;4.00;61.90;;;;;;6248991;22;20538;-81
2021/01/17 08:50:54;;;;;;;20.95;12.10;;;4.40;60.90;;;;;;6275528;22;20039;-79
2021/01/17 08:53:30;;;;;;;18.02;11.38;;;4.20;59.40;;;;;;6276110;22;19991;-80
2021/01/17 08:56:12;;;;;;;17.50;11.45;;;3.20;61.20;;;;;;6275545;22;20022;-81
2021/01/17 08:58:38;;;;;;;18.27;12.75;;;3.30;62.30;;;;;;6276241;22;20014;-80
2021/01/17 09:01:06;;;;;;;19.00;12.13;;;3.30;61.60;;;;;;6275708;22;20035;-80
2021/01/17 09:03:34;;;;;;;22.85;12.52;;;3.90;61.30;;;;;;6275850;22;20122;-80
2021/01/17 09:06:04;;;;;;;19.88;12.38;;;4.70;60.00;;;;;;6274794;22;20310;-81
2021/01/17 09:08:32;;;;;;;22.77;13.90;;;4.40;57.50;;;;;;6274813;22;20334;-80
2021/01/17 09:10:58;;;;;;;20.58;14.05;;;4.80;58.90;;;;;;6248228;22;20086;-81
2021/01/17 09:13:31;;;;;;;20.85;13.95;;;3.70;57.70;;;;;;6276688;22;20000;-80
2021/01/17 09:15:59;;;;;;;22.45;13.48;;;4.10;59.50;;;;;;6247940;22;20520;-79
2021/01/17 09:18:27;;;;;;;18.55;13.20;;;4.70;58.20;;;;;;6276154;22;19992;-80
2021/01/17 09:20:54;;;;;;;19.17;11.98;;;4.20;56.40;;;;;;6275055;22;20027;-80
2021/01/17 09:23:22;;;;;;;17.15;10.82;;;4.40;55.90;;;;;;6274595;22;20016;-80
2021/01/17 09:25:54;;;;;;;17.75;11.68;;;3.80;56.60;;;;;;6274856;22;20053;-81
2021/01/17 09:28:20;;;;;;;16.38;11.10;;;4.30;56.50;;;;;;6275967;22;20011;-79
2021/01/17 09:30:54;;;;;;;13.25;10.02;;;4.20;54.40;;;;;;6275702;22;20075;-81
2021/01/17 09:33:20;;;;;;;16.63;10.75;;;3.30;53.90;;;;;;6276281;22;20000;-80
2021/01/17 09:35:47;;;;;;;16.65;10.45;;;3.60;55.80;;;;;;6275176;22;20079;-81
2021/01/17 09:38:21;;;;;;;16.90;11.30;;;4.50;54.20;;;;;;6275078;22;20759;-79
2021/01/17 09:40:49;;;;;;;16.05;11.07;;;4.90;53.50;;;;;;6275617;22;20346;-82
2021/01/17 09:43:18;;;;;;;14.68;10.55;;;5.10;52.00;;;;;;6276017;22;20075;-81
2021/01/17 09:45:53;;;;;;;16.95;11.55;;;5.60;53.50;;;;;;6276261;22;20006;-81
2021/01/17 09:48:20;;;;;;;15.30;10.38;;;5.40;51.50;;;;;;6275330;22;20679;-81
2021/01/17 09:50:46;;;;;;;16.55;11.18;;;6.00;51.60;;;;;;6247894;22;20002;-82
2021/01/17 09:53:12;;;;;;;16.55;11.05;;;6.40;50.70;;;;;;6274831;22;20367;-81
2021/01/17 09:55:43;;;;;;;16.90;11.25;;;6.40;49.90;;;;;;6247839;22;20082;-81
2021/01/17 09:58:12;;;;;;;18.67;11.40;;;6.50;49.20;;;;;;6248706;22;20095;-81
2021/01/17 10:00:39;;;;;;;20.70;12.38;;;6.60;49.30;;;;;;6246634;22;20065;-80
2021/01/17 10:03:15;;;;;;;17.23;11.75;;;6.50;49.40;;;;;;6274766;22;20070;-81
2021/01/17 10:05:43;;;;;;;18.73;12.90;;;6.40;50.10;;;;;;6247181;22;20000;-82
2021/01/17 10:08:15;;;;;;;21.00;12.25;;;6.50;50.50;;;;;;6274597;22;19995;-81
2021/01/17 10:10:45;;;;;;;18.90;12.30;;;6.60;49.80;;;;;;6246283;22;20065;-82
2021/01/17 10:13:10;;;;;;;16.83;12.43;;;6.50;51.10;;;;;;6275254;22;20003;-82
2021/01/17 10:15:38;;;;;;;22.05;12.57;;;6.80;50.00;;;;;;6275145;22;20241;-81
2021/01/17 10:18:04;;;;;;;22.08;12.30;;;6.00;50.40;;;;;;6275293;22;20025;-82
2021/01/17 10:20:42;;;;;;;21.85;14.40;;;5.90;50.70;;;;;;6273868;22;20083;-80
2021/01/17 10:23:12;;;;;;;21.95;13.63;;;5.90;51.20;;;;;;6275285;22;19999;-80
2021/01/17 10:25:38;;;;;;;22.20;13.25;;;5.30;51.80;;;;;;6247313;22;20425;-81
2021/01/17 10:28:09;;;;;;;20.20;13.50;;;5.60;51.50;;;;;;6275346;22;20034;-81
2021/01/17 10:30:43;;;;;;;19.08;13.35;;;6.20;50.50;;;;;;6247659;22;20008;-80
2021/01/17 10:33:13;;;;;;;19.98;12.50;;;6.20;50.60;;;;;;6274810;22;20075;-82
2021/01/17 10:35:49;;;;;;;18.30;12.35;;;6.30;49.10;;;;;;6273886;22;20400;-81
2021/01/17 10:38:16;;;;;;;22.63;13.20;;;6.60;48.80;;;;;;6247302;22;20007;-80
2021/01/17 10:40:43;;;;;;;19.27;11.73;;;6.90;48.20;;;;;;6246919;22;20008;-81
2021/01/17 10:43:30;;;;;;;23.38;12.80;;;7.20;47.50;;;;;;6275183;22;20004;-80
2021/01/17 10:46:15;;;;;;;24.25;12.95;;;7.70;47.30;;;;;;6247716;22;20004;-80
2021/01/17 10:48:52;;;;;;;22.63;13.88;;;7.10;47.70;;;;;;6274804;22;20003;-81
2021/01/17 10:51:29;;;;;;;41.33;23.77;;;7.10;50.00;;;;;;6246662;22;20054;-80
2021/01/17 10:53:58;;;;;;;98.43;54.28;;;8.00;54.30;;;;;;6266938;22;20004;-83
2021/01/17 10:56:27;;;;;;;24.67;14.77;;;8.20;49.60;;;;;;6247081;22;20015;-81
2021/01/17 10:58:56;;;;;;;20.45;13.43;;;7.70;47.50;;;;;;6248573;22;20058;-80
2021/01/17 11:01:35;;;;;;;28.92;14.90;;;7.20;47.80;;;;;;6247500;22;20004;-81
2021/01/17 11:04:03;;;;;;;26.58;16.55;;;8.10;56.40;;;;;;6273994;22;20598;-83
2021/01/17 11:06:30;;;;;;;41.33;23.80;;;8.60;56.80;;;;;;6275384;22;20006;-81
2021/01/17 11:09:00;;;;;;;30.30;18.08;;;8.40;51.00;;;;;;6274464;22;20053;-79
2021/01/17 11:11:30;;;;;;;73.65;39.47;;;8.50;46.90;;;;;;6273738;22;20432;-81
2021/01/17 11:14:03;;;;;;;39.88;23.05;;;8.80;47.70;;;;;;6246735;22;20020;-80
2021/01/17 11:16:49;;;;;;;19.40;12.82;;;8.90;50.50;;;;;;6247623;22;20022;-81
2021/01/17 11:19:15;;;;;;;18.98;12.00;;;8.60;45.30;;;;;;6274505;22;20353;-83
2021/01/17 11:21:42;;;;;;;18.08;12.13;;;7.70;45.70;;;;;;6275382;22;19999;-78
2021/01/17 11:24:09;;;;;;;17.80;12.23;;;7.50;46.30;;;;;;6248768;22;20067;-79
2021/01/17 11:26:38;;;;;;;17.55;11.10;;;7.40;46.20;;;;;;6248078;22;20400;-81
2021/01/17 11:29:14;;;;;;;18.25;12.40;;;7.70;45.90;;;;;;6200340;22;20012;-84
2021/01/17 11:31:49;;;;;;;17.08;11.85;;;7.40;46.20;;;;;;6275987;22;20003;-80
2021/01/17 11:34:47;;;;;;;19.50;12.50;;;7.10;46.50;;;;;;6248023;22;20426;-79
2021/01/17 11:37:13;;;;;;;18.30;11.45;;;7.90;45.70;;;;;;6274810;22;20035;-79
2021/01/17 11:39:39;;;;;;;18.05;11.93;;;8.00;45.30;;;;;;6275429;22;20011;-78
2021/01/17 11:42:05;;;;;;;20.95;12.30;;;8.00;46.10;;;;;;6275172;22;20074;-81
2021/01/17 11:44:33;;;;;;;18.10;11.52;;;8.50;45.30;;;;;;6276478;22;20012;-81
2021/01/17 11:47:01;;;;;;;19.58;11.93;;;8.60;44.20;;;;;;6249493;22;20000;-81
2021/01/17 11:49:28;;;;;;;19.67;12.95;;;8.00;44.60;;;;;;6276570;22;20007;-80
2021/01/17 11:51:54;;;;;;;17.92;12.48;;;7.70;45.40;;;;;;6249000;22;20003;-78
2021/01/17 11:54:32;;;;;;;17.42;11.57;;;8.10;45.30;;;;;;6248368;22;20004;-80
2021/01/17 11:57:06;;;;;;;17.60;12.18;;;8.50;45.10;;;;;;6248788;22;20342;-82
2021/01/17 11:59:34;;;;;;;16.98;11.88;;;8.20;44.10;;;;;;6250984;22;20065;-81
2021/01/17 12:02:39;;;;;;;16.63;11.60;;;7.90;44.90;;;;;;6278026;22;20061;-85
2021/01/17 12:05:05;;;;;;;18.48;11.93;;;8.60;43.80;;;;;;6126753;23;19998;-90
2021/01/17 12:07:34;;;;;;;17.92;11.52;;;7.90;43.70;;;;;;6231033;22;20007;-87
2021/01/17 12:10:20;;;;;;;57.85;31.98;;;8.80;43.90;;;;;;6252131;22;20004;-85
2021/01/17 12:12:45;;;;;;;56.03;31.73;;;10.30;50.00;;;;;;6251328;22;20062;-84
2021/01/17 12:15:29;;;;;;;47.42;27.65;;;11.30;51.30;;;;;;6277730;22;20314;-85
2021/01/17 12:18:05;;;;;;;21.58;13.30;;;11.10;44.00;;;;;;6250451;22;20014;-84
2021/01/17 12:20:40;;;;;;;51.60;32.58;;;9.70;44.80;;;;;;6277238;22;20061;-81
2021/01/17 12:23:11;;;;;;;70.85;38.72;;;11.10;46.90;;;;;;6277486;22;20325;-84
2021/01/17 12:25:37;;;;;;;20.95;13.77;;;10.70;43.50;;;;;;6249341;22;20094;-82
2021/01/17 12:28:03;;;;;;;35.50;20.50;;;10.20;42.30;;;;;;6248975;22;20386;-80
2021/01/17 12:33:05;;;;;;;40.50;24.58;;;12.00;45.90;;;;;;6261438;22;20022;-80
2021/01/17 12:35:31;;;;;;;25.90;16.58;;;11.80;41.00;;;;;;6276758;22;20007;-83
2021/01/17 12:37:59;;;;;;;20.08;13.10;;;11.40;40.60;;;;;;6249704;22;20309;-84
2021/01/17 12:40:28;;;;;;;17.40;11.40;;;10.80;40.30;;;;;;6249131;22;20004;-80
2021/01/17 12:42:53;;;;;;;21.60;11.65;;;9.10;41.20;;;;;;6276945;22;20062;-90
2021/01/17 12:45:19;;;;;;;18.27;12.73;;;8.80;41.90;;;;;;6249752;22;20035;-83
2021/01/17 12:47:45;;;;;;;19.60;12.57;;;8.70;42.70;;;;;;6248871;22;20026;-78
2021/01/17 12:50:11;;;;;;;18.77;11.93;;;8.80;42.40;;;;;;6247849;22;19995;-84
2021/01/17 12:52:37;;;;;;;18.70;11.40;;;8.90;42.60;;;;;;6248808;22;20496;-80